createdAt,value
2022-10-16T00:00:53.610Z,12.21
2022-10-16T00:03:26.714Z,12.23
2022-10-16T00:05:54.566Z,12.27
2022-10-16T00:08:25.131Z,12.29
2022-10-16T00:10:55.523Z,12.22
2022-10-16T00:13:26.181Z,12.18
2022-10-16T00:15:56.556Z,12.14
2022-10-16T00:18:27.031Z,12.06
2022-10-16T00:20:57.501Z,12.00
2022-10-16T00:23:28.043Z,11.93
2022-10-16T00:25:58.526Z,11.93
2022-10-16T00:28:29.144Z,11.89
2022-10-16T00:30:59.481Z,11.90
2022-10-16T00:33:30.000Z,11.87
2022-10-16T00:36:00.508Z,11.81
2022-10-16T00:38:31.121Z,11.73
2022-10-16T00:41:01.487Z,11.82
2022-10-16T00:43:32.063Z,11.88
2022-10-16T00:46:02.476Z,11.91
2022-10-16T00:48:32.987Z,11.85
2022-10-16T00:51:03.458Z,11.78
2022-10-16T00:53:33.976Z,11.73
2022-10-16T00:56:04.473Z,11.63
2022-10-16T00:58:35.206Z,11.56
2022-10-16T01:01:05.518Z,11.51
2022-10-16T01:03:36.124Z,11.49
2022-10-16T01:06:06.480Z,11.47
2022-10-16T01:08:37.014Z,11.52
2022-10-16T01:11:07.553Z,11.60
2022-10-16T01:13:38.075Z,11.54
2022-10-16T01:16:08.496Z,11.56
2022-10-16T01:18:39.079Z,11.64
2022-10-16T01:21:09.483Z,11.73
2022-10-16T01:23:40.031Z,11.75
2022-10-16T01:26:10.503Z,11.75
2022-10-16T01:28:41.194Z,11.75
2022-10-16T01:31:11.520Z,11.62
2022-10-16T01:33:42.074Z,11.53
2022-10-16T01:36:12.478Z,11.54
2022-10-16T01:38:43.241Z,11.67
2022-10-16T01:41:13.594Z,11.71
2022-10-16T01:43:44.126Z,11.67
2022-10-16T01:46:14.510Z,11.61
2022-10-16T01:48:45.040Z,11.63
2022-10-16T01:51:15.502Z,11.59
2022-10-16T01:53:46.178Z,11.69
2022-10-16T01:56:16.556Z,11.72
2022-10-16T01:58:47.099Z,11.82
2022-10-16T02:01:17.518Z,11.90
2022-10-16T02:03:48.048Z,11.79
2022-10-16T02:06:18.489Z,11.90
2022-10-16T02:08:49.008Z,11.85
2022-10-16T02:11:19.483Z,11.85
2022-10-16T02:13:50.061Z,11.77
2022-10-16T02:16:20.496Z,11.80
2022-10-16T02:18:51.008Z,11.75
2022-10-16T02:21:21.547Z,11.78
2022-10-16T02:23:51.985Z,11.67
2022-10-16T02:26:22.486Z,11.51
2022-10-16T02:28:53.037Z,11.69
2022-10-16T02:31:23.527Z,11.73
2022-10-16T02:33:54.036Z,11.84
2022-10-16T02:36:24.459Z,11.84
2022-10-16T02:38:54.984Z,11.80
2022-10-16T02:41:25.473Z,11.89
2022-10-16T02:43:56.019Z,11.85
2022-10-16T02:46:26.458Z,11.62
2022-10-16T02:48:56.978Z,11.69
2022-10-16T02:51:27.478Z,11.61
2022-10-16T02:53:57.992Z,11.60
2022-10-16T02:56:28.415Z,11.67
2022-10-16T02:58:59.105Z,11.60
2022-10-16T03:01:29.469Z,11.63
2022-10-16T03:04:00.015Z,11.62
2022-10-16T03:06:30.464Z,11.67
2022-10-16T03:09:00.963Z,11.82
2022-10-16T03:11:31.448Z,11.81
2022-10-16T03:14:01.962Z,11.88
2022-10-16T03:16:32.446Z,11.94
2022-10-16T03:19:02.970Z,12.03
2022-10-16T03:21:33.428Z,12.01
2022-10-16T03:24:03.535Z,12.09
2022-10-16T03:26:33.759Z,12.19
2022-10-16T03:29:04.589Z,12.34
2022-10-16T03:31:34.455Z,12.46
2022-10-16T03:34:05.113Z,12.52
2022-10-16T03:36:35.664Z,12.53
2022-10-16T03:39:06.212Z,12.58
2022-10-16T03:41:36.697Z,12.62
2022-10-16T03:44:07.252Z,12.64
2022-10-16T03:46:37.761Z,12.67
2022-10-16T03:49:09.815Z,12.68
2022-10-16T03:51:38.870Z,12.71
2022-10-16T03:54:09.269Z,12.68
2022-10-16T03:56:39.756Z,12.71
2022-10-16T03:59:10.247Z,12.75
2022-10-16T04:01:40.726Z,12.74
2022-10-16T04:04:11.327Z,12.78
2022-10-16T04:06:41.655Z,12.85
2022-10-16T04:09:12.123Z,12.89
2022-10-16T04:11:42.539Z,12.88
2022-10-16T04:14:13.123Z,12.87
2022-10-16T04:16:43.434Z,12.90
2022-10-16T04:19:14.000Z,12.90
2022-10-16T04:21:44.378Z,12.95
2022-10-16T04:24:14.781Z,12.97
2022-10-16T04:26:45.248Z,12.97
2022-10-16T04:29:15.699Z,13.03
2022-10-16T04:31:46.187Z,13.00
2022-10-16T04:34:16.574Z,13.04
2022-10-16T04:36:47.028Z,13.09
2022-10-16T04:39:17.540Z,13.07
2022-10-16T04:41:47.845Z,13.08
2022-10-16T04:44:18.393Z,13.09
2022-10-16T04:46:48.745Z,13.16
2022-10-16T04:49:19.223Z,13.17
2022-10-16T04:51:49.620Z,13.14
2022-10-16T04:54:20.065Z,13.11
2022-10-16T04:56:50.488Z,13.00
2022-10-16T04:59:21.074Z,13.07
2022-10-16T05:01:51.337Z,13.06
2022-10-16T05:04:21.891Z,13.09
2022-10-16T05:06:52.185Z,13.09
2022-10-16T05:09:22.778Z,13.08
2022-10-16T05:11:53.069Z,13.11
2022-10-16T05:14:23.539Z,13.14
2022-10-16T05:16:53.994Z,13.08
2022-10-16T05:19:28.555Z,13.07
2022-10-16T05:21:54.813Z,13.02
2022-10-16T05:24:25.290Z,13.06
2022-10-16T05:26:55.701Z,12.97
2022-10-16T05:29:26.139Z,12.92
2022-10-16T05:31:56.545Z,12.96
2022-10-16T05:34:27.118Z,12.96
2022-10-16T05:36:57.417Z,13.03
2022-10-16T05:39:27.841Z,13.04
2022-10-16T05:41:58.312Z,13.05
2022-10-16T05:44:28.823Z,13.14
2022-10-16T05:46:59.193Z,13.10
2022-10-16T05:49:29.596Z,13.10
2022-10-16T05:52:00.091Z,13.08
2022-10-16T05:54:30.446Z,13.10
2022-10-16T05:57:00.859Z,13.12
2022-10-16T05:59:31.342Z,13.09
2022-10-16T06:02:01.767Z,13.01
2022-10-16T06:04:32.295Z,13.05
2022-10-16T06:07:02.579Z,13.08
2022-10-16T06:09:33.018Z,13.00
2022-10-16T06:12:03.491Z,13.08
2022-10-16T06:14:34.023Z,13.11
2022-10-16T06:17:04.359Z,13.10
2022-10-16T06:19:34.808Z,12.99
2022-10-16T06:22:05.286Z,13.03
2022-10-16T06:24:35.690Z,13.09
2022-10-16T06:27:06.154Z,13.09
2022-10-16T06:29:36.560Z,13.09
2022-10-16T06:32:07.039Z,13.06
2022-10-16T06:34:38.502Z,13.02
2022-10-16T06:37:07.876Z,13.07
2022-10-16T06:39:39.925Z,13.16
2022-10-16T06:42:08.731Z,13.05
2022-10-16T06:44:39.102Z,12.95
2022-10-16T06:47:09.571Z,13.00
2022-10-16T06:49:40.002Z,12.98
2022-10-16T06:52:10.402Z,13.03
2022-10-16T06:54:42.588Z,13.07
2022-10-16T06:57:11.230Z,13.10
2022-10-16T06:59:45.173Z,13.10
2022-10-16T07:02:12.076Z,13.06
2022-10-16T07:04:42.595Z,13.04
2022-10-16T07:07:12.950Z,13.10
2022-10-16T07:09:43.425Z,13.14
2022-10-16T07:12:13.804Z,13.11
2022-10-16T07:14:44.224Z,13.19
2022-10-16T07:17:14.659Z,13.15
2022-10-16T07:19:45.105Z,13.15
2022-10-16T07:22:15.563Z,13.10
2022-10-16T07:24:49.172Z,13.17
2022-10-16T07:27:16.363Z,13.23
2022-10-16T07:29:46.844Z,13.22
2022-10-16T07:32:17.206Z,13.13
2022-10-16T07:34:47.712Z,13.18
2022-10-16T07:37:18.169Z,13.16
2022-10-16T07:39:48.504Z,12.98
2022-10-16T07:42:18.926Z,13.08
2022-10-16T07:44:49.348Z,13.02
2022-10-16T07:47:19.728Z,12.98
2022-10-16T07:49:50.194Z,13.11
2022-10-16T07:52:20.639Z,13.01
2022-10-16T07:54:51.253Z,13.06
2022-10-16T07:57:21.508Z,13.11
2022-10-16T07:59:51.881Z,13.06
2022-10-16T08:02:22.296Z,13.13
2022-10-16T08:04:52.764Z,13.25
2022-10-16T08:07:23.200Z,13.25
2022-10-16T08:09:53.524Z,13.28
2022-10-16T08:12:23.969Z,13.34
2022-10-16T08:14:54.341Z,13.25
2022-10-16T08:17:25.150Z,13.11
2022-10-16T08:19:55.220Z,13.38
2022-10-16T08:22:25.625Z,13.50
2022-10-16T08:24:56.041Z,13.51
2022-10-16T08:27:26.571Z,13.59
2022-10-16T08:29:56.888Z,13.68
2022-10-16T08:32:27.721Z,13.73
2022-10-16T08:34:57.812Z,13.86
2022-10-16T08:37:28.106Z,13.81
2022-10-16T08:39:58.515Z,13.93
2022-10-16T08:42:29.251Z,14.01
2022-10-16T08:44:59.309Z,14.10
2022-10-16T08:47:29.721Z,14.20
2022-10-16T08:50:00.128Z,14.15
2022-10-16T08:52:30.534Z,14.13
2022-10-16T08:55:00.964Z,14.20
2022-10-16T08:57:31.323Z,14.14
2022-10-16T09:00:01.630Z,14.20
2022-10-16T09:02:32.039Z,14.19
2022-10-16T09:05:02.532Z,14.11
2022-10-16T09:07:32.782Z,14.08
2022-10-16T09:10:03.182Z,14.16
2022-10-16T09:12:33.589Z,14.14
2022-10-16T09:15:03.994Z,14.31
2022-10-16T09:17:34.404Z,14.31
2022-10-16T09:20:04.832Z,14.44
2022-10-16T09:22:35.205Z,14.56
2022-10-16T09:25:05.601Z,14.41
2022-10-16T09:27:35.998Z,14.53
2022-10-16T09:30:06.394Z,14.59
2022-10-16T09:32:36.784Z,14.58
2022-10-16T09:35:07.210Z,14.64
2022-10-16T09:37:37.575Z,14.62
2022-10-16T09:40:08.050Z,14.71
2022-10-16T09:42:40.381Z,14.81
2022-10-16T09:45:08.784Z,14.90
2022-10-16T09:47:39.131Z,14.94
2022-10-16T09:50:09.516Z,15.06
2022-10-16T09:52:39.874Z,14.72
2022-10-16T09:55:10.317Z,14.81
2022-10-16T09:57:40.629Z,14.87
2022-10-16T10:00:11.024Z,14.68
2022-10-16T10:02:41.453Z,14.86
2022-10-16T10:05:11.905Z,14.95
2022-10-16T10:07:42.226Z,14.94
2022-10-16T10:10:12.496Z,15.06
2022-10-16T10:12:42.853Z,14.99
2022-10-16T10:15:13.254Z,14.83
2022-10-16T10:17:43.611Z,14.91
2022-10-16T10:20:13.975Z,14.89
2022-10-16T10:22:44.331Z,15.01
2022-10-16T10:25:14.700Z,14.91
2022-10-16T10:27:45.059Z,14.93
2022-10-16T10:32:45.766Z,15.33
2022-10-16T10:35:16.131Z,15.39
2022-10-16T10:37:46.510Z,15.37
2022-10-16T10:40:16.860Z,15.32
2022-10-16T10:42:47.175Z,15.19
2022-10-16T10:45:17.639Z,15.37
2022-10-16T10:47:47.887Z,15.38
2022-10-16T10:50:18.246Z,15.26
2022-10-16T10:52:48.670Z,15.42
2022-10-16T10:55:18.981Z,15.51
2022-10-16T10:57:49.332Z,15.44
2022-10-16T11:00:19.720Z,15.42
2022-10-16T11:02:50.068Z,15.49
2022-10-16T11:05:20.414Z,15.51
2022-10-16T11:07:50.761Z,15.67
2022-10-16T11:10:21.143Z,15.68
2022-10-16T11:12:51.483Z,15.68
2022-10-16T11:15:21.895Z,15.75
2022-10-16T11:17:52.224Z,15.74
2022-10-16T11:20:22.588Z,15.74
2022-10-16T11:22:52.942Z,15.82
2022-10-16T11:25:23.336Z,15.78
2022-10-16T11:27:53.675Z,15.74
2022-10-16T11:30:24.055Z,15.74
2022-10-16T11:32:54.412Z,15.86
2022-10-16T11:35:24.764Z,15.88
2022-10-16T11:37:55.104Z,16.07
2022-10-16T11:40:25.485Z,16.05
2022-10-16T11:42:55.814Z,15.91
2022-10-16T11:45:26.161Z,16.16
2022-10-16T11:47:59.599Z,16.25
2022-10-16T11:50:26.944Z,16.10
2022-10-16T11:52:57.216Z,16.10
2022-10-16T11:55:27.562Z,16.21
2022-10-16T11:57:57.882Z,16.12
2022-10-16T12:00:28.230Z,16.24
2022-10-16T12:02:58.539Z,16.25
2022-10-16T12:05:28.889Z,16.24
2022-10-16T12:07:59.204Z,16.18
2022-10-16T12:10:29.719Z,16.16
2022-10-16T12:12:59.873Z,16.15
2022-10-16T12:15:54.149Z,16.20
2022-10-16T12:18:00.549Z,16.13
2022-10-16T12:20:30.962Z,16.05
2022-10-16T12:23:01.221Z,16.14
2022-10-16T12:25:31.284Z,16.21
2022-10-16T12:28:01.587Z,16.37
2022-10-16T12:30:35.015Z,16.30
2022-10-16T12:33:02.265Z,16.28
2022-10-16T12:35:32.720Z,16.28
2022-10-16T12:38:03.013Z,16.29
2022-10-16T12:40:33.294Z,16.37
2022-10-16T12:43:03.569Z,16.39
2022-10-16T12:45:34.012Z,16.38
2022-10-16T12:48:04.238Z,16.53
2022-10-16T12:50:34.556Z,16.64
2022-10-16T12:53:04.873Z,16.59
2022-10-16T12:55:35.222Z,16.79
2022-10-16T12:58:05.498Z,16.61
2022-10-16T13:00:35.918Z,16.81
2022-10-16T13:03:10.277Z,16.81
2022-10-16T13:08:07.004Z,16.91
2022-10-16T13:10:37.168Z,16.96
2022-10-16T13:13:07.505Z,17.05
2022-10-16T13:15:37.936Z,17.12
2022-10-16T13:18:07.993Z,17.01
2022-10-16T13:20:38.612Z,17.12
2022-10-16T13:23:08.836Z,17.15
2022-10-16T13:25:39.077Z,17.17
2022-10-16T13:28:09.234Z,17.00
2022-10-16T13:30:39.658Z,17.08
2022-10-16T13:33:10.270Z,17.02
2022-10-16T13:35:40.201Z,16.97
2022-10-16T13:38:10.672Z,17.10
2022-10-16T13:40:40.902Z,17.06
2022-10-16T13:43:11.509Z,17.09
2022-10-16T13:45:42.142Z,17.02
2022-10-16T13:48:11.931Z,17.06
2022-10-16T13:50:42.257Z,17.17
2022-10-16T13:53:12.455Z,17.14
2022-10-16T13:55:42.777Z,17.26
2022-10-16T13:58:13.085Z,17.32
2022-10-16T14:00:43.522Z,17.37
2022-10-16T14:03:13.719Z,17.37
2022-10-16T14:05:44.181Z,17.32
2022-10-16T14:08:14.523Z,17.21
2022-10-16T14:10:44.684Z,17.21
2022-10-16T14:13:15.066Z,17.27
2022-10-16T14:15:45.297Z,17.28
2022-10-16T14:18:15.652Z,17.23
2022-10-16T14:20:45.942Z,17.20
2022-10-16T14:23:16.665Z,17.04
2022-10-16T14:25:46.507Z,17.00
2022-10-16T14:28:16.618Z,16.91
2022-10-16T14:30:46.946Z,16.91
2022-10-16T14:33:17.593Z,17.01
2022-10-16T14:35:47.668Z,17.08
2022-10-16T14:38:17.943Z,16.93
2022-10-16T14:40:48.435Z,17.00
2022-10-16T14:43:18.850Z,17.06
2022-10-16T14:45:49.016Z,17.10
2022-10-16T14:48:19.962Z,17.16
2022-10-16T14:50:49.652Z,17.20
2022-10-16T14:53:20.188Z,17.17
2022-10-16T14:55:50.493Z,17.08
2022-10-16T14:58:20.760Z,17.12
2022-10-16T15:00:50.822Z,17.15
2022-10-16T15:03:21.202Z,17.14
2022-10-16T15:05:51.555Z,17.09
2022-10-16T15:08:22.040Z,17.07
2022-10-16T15:10:52.183Z,16.98
2022-10-16T15:13:22.553Z,16.98
2022-10-16T15:15:52.763Z,17.03
2022-10-16T15:18:23.089Z,17.02
2022-10-16T15:20:53.404Z,17.01
2022-10-16T15:23:23.815Z,17.05
2022-10-16T15:25:54.183Z,17.05
2022-10-16T15:28:24.557Z,17.07
2022-10-16T15:30:54.726Z,17.09
2022-10-16T15:33:25.242Z,17.11
2022-10-16T15:35:55.370Z,17.09
2022-10-16T15:38:25.701Z,17.05
2022-10-16T15:40:56.044Z,17.02
2022-10-16T15:43:26.447Z,17.01
2022-10-16T15:45:56.740Z,17.01
2022-10-16T15:48:27.001Z,17.01
2022-10-16T15:50:57.348Z,16.98
2022-10-16T15:53:27.638Z,16.94
2022-10-16T15:55:57.952Z,16.91
2022-10-16T15:58:28.269Z,16.89
2022-10-16T16:00:58.571Z,16.88
2022-10-16T16:03:28.923Z,16.87
2022-10-16T16:05:59.193Z,16.84
2022-10-16T16:08:29.495Z,16.81
2022-10-16T16:10:59.853Z,16.76
2022-10-16T16:13:30.132Z,16.73
2022-10-16T16:16:00.417Z,16.67
2022-10-16T16:18:30.807Z,16.62
2022-10-16T16:21:01.048Z,16.57
2022-10-16T16:23:31.379Z,16.53
2022-10-16T16:26:01.697Z,16.51
2022-10-16T16:28:32.218Z,16.47
2022-10-16T16:31:02.349Z,16.41
2022-10-16T16:33:32.706Z,16.34
2022-10-16T16:36:03.088Z,16.30
2022-10-16T16:38:33.304Z,16.25
2022-10-16T16:41:03.767Z,16.16
2022-10-16T16:43:33.999Z,16.07
2022-10-16T16:46:04.286Z,16.00
2022-10-16T16:48:35.189Z,15.95
2022-10-16T16:51:05.556Z,15.89
2022-10-16T16:53:35.942Z,15.81
2022-10-16T16:56:06.268Z,15.71
2022-10-16T16:58:36.580Z,15.63
2022-10-16T17:01:19.321Z,15.55
2022-10-16T17:03:37.244Z,15.53
2022-10-16T17:06:07.577Z,15.51
2022-10-16T17:08:37.997Z,15.42
2022-10-16T17:11:08.476Z,15.33
2022-10-16T17:13:38.632Z,15.26
2022-10-16T17:16:08.978Z,15.21
2022-10-16T17:18:39.345Z,15.19
2022-10-16T17:21:09.693Z,15.16
2022-10-16T17:23:40.164Z,15.15
2022-10-16T17:26:10.416Z,15.15
2022-10-16T17:28:40.864Z,15.14
2022-10-16T17:33:41.496Z,15.08
2022-10-16T17:36:11.867Z,15.07
2022-10-16T17:38:42.356Z,15.02
2022-10-16T17:41:12.785Z,14.98
2022-10-16T17:43:43.042Z,14.87
2022-10-16T17:46:13.461Z,14.83
2022-10-16T17:48:43.899Z,14.77
2022-10-16T17:51:14.202Z,14.78
2022-10-16T17:53:44.584Z,14.71
2022-10-16T17:56:14.970Z,14.65
2022-10-16T17:58:47.718Z,14.61
2022-10-16T18:01:15.811Z,14.59
2022-10-16T18:03:46.124Z,14.55
2022-10-16T18:06:20.280Z,14.52
2022-10-16T18:08:47.074Z,14.47
2022-10-16T18:11:17.347Z,14.44
2022-10-16T18:13:47.756Z,14.43
2022-10-16T18:16:18.105Z,14.38
2022-10-16T18:18:48.593Z,14.32
2022-10-16T18:21:18.929Z,14.27
2022-10-16T18:23:51.825Z,14.25
2022-10-16T18:26:19.810Z,14.27
2022-10-16T18:28:50.274Z,14.27
2022-10-16T18:31:20.670Z,14.26
2022-10-16T18:33:51.200Z,14.25
2022-10-16T18:36:21.129Z,14.21
2022-10-16T18:38:51.310Z,14.15
2022-10-16T18:41:21.700Z,14.12
2022-10-16T18:43:52.166Z,14.12
2022-10-16T18:46:22.581Z,14.07
2022-10-16T18:48:53.020Z,14.08
2022-10-16T18:51:23.838Z,14.06
2022-10-16T18:53:53.708Z,14.06
2022-10-16T18:56:24.009Z,14.05
2022-10-16T18:58:54.177Z,14.03
2022-10-16T19:01:24.457Z,14.02
2022-10-16T19:03:54.882Z,13.99
2022-10-16T19:06:25.217Z,14.00
2022-10-16T19:08:55.320Z,13.99
2022-10-16T19:11:25.758Z,13.99
2022-10-16T19:13:56.163Z,14.00
2022-10-16T19:16:26.944Z,14.00
2022-10-16T19:18:57.236Z,14.00
2022-10-16T19:21:27.483Z,13.97
2022-10-16T19:23:57.889Z,13.98
2022-10-16T19:26:28.330Z,13.96
2022-10-16T19:28:58.927Z,13.96
2022-10-16T19:31:29.036Z,13.96
2022-10-16T19:33:59.716Z,13.97
2022-10-16T19:36:30.208Z,13.98
2022-10-16T19:39:00.911Z,13.98
2022-10-16T19:41:31.330Z,13.97
2022-10-16T19:44:01.626Z,13.95
2022-10-16T19:46:32.330Z,13.94
2022-10-16T19:49:02.455Z,13.94
2022-10-16T19:51:32.675Z,13.93
2022-10-16T19:54:03.358Z,13.91
2022-10-16T19:56:33.820Z,13.91
2022-10-16T19:59:04.648Z,13.94
2022-10-16T20:01:35.024Z,13.95
2022-10-16T20:04:05.427Z,13.98
2022-10-16T20:06:35.668Z,14.00
2022-10-16T20:09:06.044Z,14.02
2022-10-16T20:11:36.180Z,14.03
2022-10-16T20:14:06.738Z,14.03
2022-10-16T20:16:37.159Z,14.06
2022-10-16T20:19:07.521Z,14.08
2022-10-16T20:21:37.969Z,14.11
2022-10-16T20:24:08.397Z,14.13
2022-10-16T20:26:38.842Z,14.15
2022-10-16T20:29:09.152Z,14.17
2022-10-16T20:31:39.187Z,14.19
2022-10-16T20:34:09.578Z,14.21
2022-10-16T20:36:40.043Z,14.22
2022-10-16T20:39:10.467Z,14.19
2022-10-16T20:41:40.924Z,14.18
2022-10-16T20:44:11.077Z,14.19
2022-10-16T20:46:41.164Z,14.18
2022-10-16T20:49:27.914Z,14.19
2022-10-16T20:51:42.047Z,14.18
2022-10-16T20:54:12.548Z,14.16
2022-10-16T20:56:42.890Z,14.15
2022-10-16T20:59:13.321Z,14.14
2022-10-16T21:01:43.786Z,14.14
2022-10-16T21:04:14.197Z,14.15
2022-10-16T21:06:44.649Z,14.14
2022-10-16T21:09:15.017Z,14.13
2022-10-16T21:11:45.495Z,14.14
2022-10-16T21:14:15.884Z,14.13
2022-10-16T21:16:46.325Z,14.13
2022-10-16T21:19:16.744Z,14.15
2022-10-16T21:21:47.190Z,14.18
2022-10-16T21:24:17.606Z,14.21
2022-10-16T21:26:48.034Z,14.22
2022-10-16T21:29:18.522Z,14.23
2022-10-16T21:31:49.179Z,14.26
2022-10-16T21:34:19.323Z,14.27
2022-10-16T21:36:49.403Z,14.29
2022-10-16T21:39:19.829Z,14.27
2022-10-16T21:41:49.961Z,14.26
2022-10-16T21:44:20.396Z,14.24
2022-10-16T21:46:50.849Z,14.23
2022-10-16T21:49:21.322Z,14.23
2022-10-16T21:51:51.656Z,14.25
2022-10-16T21:54:22.049Z,14.26
2022-10-16T21:56:52.590Z,14.27
2022-10-16T21:59:22.919Z,14.30
2022-10-16T22:01:53.308Z,14.31
2022-10-16T22:04:23.468Z,14.29
2022-10-16T22:06:53.877Z,14.29
2022-10-16T22:09:24.275Z,14.28
2022-10-16T22:11:54.697Z,14.30
2022-10-16T22:14:24.877Z,14.32
2022-10-16T22:16:55.173Z,14.33
2022-10-16T22:19:25.596Z,14.35
2022-10-16T22:21:56.012Z,14.38
2022-10-16T22:24:26.469Z,14.42
2022-10-16T22:26:56.812Z,14.44
2022-10-16T22:29:27.221Z,14.48
2022-10-16T22:31:57.607Z,14.50
2022-10-16T22:34:28.308Z,14.52
2022-10-16T22:36:58.738Z,14.55
2022-10-16T22:39:29.249Z,14.55
2022-10-16T22:41:59.545Z,14.57
2022-10-16T22:44:30.003Z,14.58
2022-10-16T22:47:00.343Z,14.60
2022-10-16T22:49:30.763Z,14.59
2022-10-16T22:52:01.172Z,14.58
2022-10-16T22:54:31.564Z,14.58
2022-10-16T22:57:01.962Z,14.59
2022-10-16T22:59:32.380Z,14.58
2022-10-16T23:02:02.780Z,14.59
2022-10-16T23:04:33.200Z,14.61
2022-10-16T23:07:03.608Z,14.63
2022-10-16T23:09:33.997Z,14.65
2022-10-16T23:12:04.407Z,14.68
2022-10-16T23:14:34.925Z,14.65
2022-10-16T23:17:05.249Z,14.66
2022-10-16T23:19:35.668Z,14.67
2022-10-16T23:22:06.069Z,14.67
2022-10-16T23:24:36.478Z,14.66
2022-10-16T23:27:06.909Z,14.69
2022-10-16T23:29:37.376Z,14.69
2022-10-16T23:32:07.728Z,14.71
2022-10-16T23:34:38.139Z,14.70
2022-10-16T23:37:08.364Z,14.71
2022-10-16T23:39:38.680Z,14.72
2022-10-16T23:42:09.087Z,14.71
2022-10-16T23:44:39.235Z,14.70
2022-10-16T23:47:09.564Z,14.69
2022-10-16T23:49:39.970Z,14.68
2022-10-16T23:52:10.398Z,14.65
2022-10-16T23:54:41.136Z,14.65
2022-10-16T23:57:11.525Z,14.66
2022-10-16T23:59:41.690Z,14.66
